Time;durP1;ratioP1;P1;durP2;ratioP2;P2;SDS_P1;SDS_P2;PMS_P1;PMS_P2;Temp;Humidity;BMP_temperature;BMP_pressure;BME280_temperature;BME280_humidity;BME280_pressure;Samples;Min_cycle;Max_cycle;Signal;HPM_P1;HPM_P2
2023/10/15 00:00:13;;;;;;;3.60;2.13;;;;;;;11.04;100.00;100579.66;5020794;28;20207;-81
2023/10/15 00:02:44;;;;;;;4.13;2.43;;;;;;;11.06;100.00;100575.34;5020178;28;20208;-83
2023/10/15 00:05:12;;;;;;;3.13;2.17;;;;;;;11.10;100.00;100571.88;5028307;28;20230;-81
2023/10/15 00:07:38;;;;;;;4.33;2.20;;;;;;;11.12;100.00;100572.69;5019373;28;20192;-84
2023/10/15 00:10:10;;;;;;;6.63;2.97;;;;;;;11.14;100.00;100568.34;5023059;28;20195;-83
2023/10/15 00:12:37;;;;;;;6.03;2.60;;;;;;;11.13;100.00;100571.81;5021956;28;20853;-83
2023/10/15 00:15:05;;;;;;;4.83;2.20;;;;;;;11.13;100.00;100571.81;5012229;28;20191;-85
2023/10/15 00:17:30;;;;;;;5.43;3.47;;;;;;;11.15;100.00;100566.66;5018298;28;20279;-85
2023/10/15 00:19:55;;;;;;;10.27;5.07;;;;;;;11.15;100.00;100567.50;5015889;28;20200;-84
2023/10/15 00:22:21;;;;;;;4.60;2.67;;;;;;;11.17;100.00;100573.53;5023819;28;20206;-83
2023/10/15 00:24:46;;;;;;;4.87;2.20;;;;;;;11.19;100.00;100558.00;5024531;28;20603;-84
2023/10/15 00:27:11;;;;;;;6.37;2.83;;;;;;;11.17;100.00;100563.16;5017696;28;20738;-84
2023/10/15 00:29:37;;;;;;;5.53;2.50;;;;;;;11.18;100.00;100564.03;5025941;28;20998;-81
2023/10/15 00:32:04;;;;;;;7.53;3.97;;;;;;;11.19;100.00;100568.34;5021710;28;20579;-84
2023/10/15 00:34:30;;;;;;;4.83;2.27;;;;;;;11.23;100.00;100563.13;5015861;28;20836;-82
2023/10/15 00:36:55;;;;;;;12.63;5.63;;;;;;;11.19;100.00;100558.00;5014389;28;20581;-84
2023/10/15 00:39:21;;;;;;;10.50;7.00;;;;;;;11.16;100.00;100561.44;5017521;28;20215;-79
2023/10/15 00:41:53;;;;;;;9.73;5.40;;;;;;;11.16;100.00;100564.03;5013788;28;20203;-86
2023/10/15 00:44:18;;;;;;;11.93;7.00;;;;;;;11.16;100.00;100561.44;5022045;28;20796;-83
2023/10/15 00:46:54;;;;;;;10.97;7.63;;;;;;;11.17;100.00;100562.31;5018906;28;20188;-84
2023/10/15 00:49:25;;;;;;;7.33;4.70;;;;;;;11.18;100.00;100561.44;5015688;28;20551;-82
2023/10/15 00:51:51;;;;;;;10.50;6.27;;;;;;;11.17;100.00;100560.56;5027129;28;20294;-83
2023/10/15 00:54:18;;;;;;;9.93;5.40;;;;;;;11.17;100.00;100555.41;5022777;28;20187;-80
2023/10/15 00:56:47;;;;;;;5.37;3.03;;;;;;;11.18;100.00;100551.09;5015037;28;20219;-86
2023/10/15 01:01:51;;;;;;;6.53;2.50;;;;;;;11.17;100.00;100549.38;5019666;28;20214;-83
2023/10/15 01:04:17;;;;;;;4.13;2.20;;;;;;;11.14;100.00;100547.63;5010766;28;20256;-85
2023/10/15 01:06:49;;;;;;;5.33;2.10;;;;;;;11.12;100.00;100550.25;5012869;28;20660;-81
2023/10/15 01:11:44;;;;;;;4.20;1.93;;;;;;;11.10;100.00;100544.22;5020152;28;20234;-84
2023/10/15 01:14:11;;;;;;;6.53;2.07;;;;;;;11.11;100.00;100545.94;5022353;28;20257;-85
2023/10/15 01:16:38;;;;;;;5.43;2.30;;;;;;;11.10;100.00;100541.63;5041658;28;20190;-79
2023/10/15 01:21:43;;;;;;;2.43;1.90;;;;;;;11.11;100.00;100543.34;5020895;28;20307;-82
2023/10/15 01:24:08;;;;;;;3.83;1.87;;;;;;;11.10;100.00;100549.41;5018375;28;20208;-84
2023/10/15 01:26:36;;;;;;;4.77;2.13;;;;;;;11.13;100.00;100549.38;5024825;28;20194;-83
2023/10/15 01:29:05;;;;;;;4.47;2.03;;;;;;;11.10;100.00;100545.97;5014187;28;20975;-87
2023/10/15 01:31:39;;;;;;;6.40;2.80;;;;;;;11.11;100.00;100542.50;5020599;28;20218;-82
2023/10/15 01:34:04;;;;;;;5.33;2.40;;;;;;;11.11;100.00;100551.13;5017230;28;20211;-82
2023/10/15 01:36:38;;;;;;;4.77;2.23;;;;;;;11.11;100.00;100552.88;5045817;28;20805;-85
2023/10/15 01:39:10;;;;;;;5.43;2.37;;;;;;;11.10;100.00;100551.16;5018558;28;20249;-82
2023/10/15 01:41:39;;;;;;;4.53;2.00;;;;;;;11.09;100.00;100549.41;5021608;28;20208;-86
2023/10/15 01:44:06;;;;;;;4.47;2.37;;;;;;;11.09;100.00;100545.09;5011555;28;20316;-86
2023/10/15 01:47:07;;;;;;;4.07;1.83;;;;;;;11.10;100.00;100548.56;5018266;28;20581;-85
2023/10/15 01:49:33;;;;;;;4.03;1.93;;;;;;;11.10;100.00;100543.38;5015749;28;20310;-82
2023/10/15 01:52:28;;;;;;;3.60;1.90;;;;;;;11.11;100.00;100545.09;5022217;28;20229;-82
2023/10/15 01:54:53;;;;;;;3.30;1.73;;;;;;;11.06;100.00;100539.91;5020273;28;20191;-83
2023/10/15 01:57:22;;;;;;;3.20;1.80;;;;;;;11.07;100.00;100538.22;5020353;28;20200;-84
2023/10/15 01:59:47;;;;;;;3.80;1.53;;;;;;;11.08;100.00;100534.75;5018371;28;20223;-81
2023/10/15 02:02:15;;;;;;;4.20;1.43;;;;;;;11.08;100.00;100547.69;5029978;28;20210;-84
2023/10/15 02:04:44;;;;;;;3.97;1.60;;;;;;;11.08;100.00;100540.78;5028082;28;20195;-84
2023/10/15 02:07:14;;;;;;;3.13;1.90;;;;;;;11.09;100.00;100532.13;5016781;28;20731;-82
2023/10/15 02:09:42;;;;;;;2.13;1.43;;;;;;;11.12;100.00;100545.06;5022306;28;20184;-85
2023/10/15 02:12:10;;;;;;;2.37;1.30;;;;;;;11.13;100.00;100540.72;5021334;28;20611;-81
2023/10/15 02:14:35;;;;;;;2.73;1.53;;;;;;;11.13;100.00;100539.03;5020040;28;20225;-81
2023/10/15 02:17:05;;;;;;;1.93;1.40;;;;;;;11.17;100.00;100542.44;5030704;28;20641;-85
2023/10/15 02:19:40;;;;;;;2.20;1.23;;;;;;;11.17;100.00;100542.44;5016773;28;20215;-84
2023/10/15 02:22:06;;;;;;;3.03;1.47;;;;;;;11.19;100.00;100545.88;5024791;28;20705;-85
2023/10/15 02:24:34;;;;;;;3.03;1.20;;;;;;;11.23;100.00;100534.63;5023423;28;20417;-82
2023/10/15 02:27:05;;;;;;;1.90;1.30;;;;;;;11.27;100.00;100546.66;5018843;28;20222;-84
2023/10/15 02:32:07;;;;;;;3.50;1.57;;;;;;;11.35;100.00;100540.59;5028057;28;20220;-85
2023/10/15 02:34:39;;;;;;;1.97;1.47;;;;;;;11.33;100.00;100532.84;5023552;28;20197;-83
2023/10/15 02:37:05;;;;;;;4.53;1.83;;;;;;;11.32;100.00;100536.31;5031059;28;20592;-82
2023/10/15 02:39:37;;;;;;;3.50;1.70;;;;;;;11.31;100.00;100537.16;5019684;28;20215;-87
2023/10/15 02:42:03;;;;;;;2.83;1.40;;;;;;;11.31;100.00;100534.56;5024141;28;20273;-82
2023/10/15 02:44:32;;;;;;;4.37;1.43;;;;;;;11.32;100.00;100540.59;5024384;28;20182;-82
2023/10/15 02:47:07;;;;;;;2.77;1.30;;;;;;;11.32;100.00;100538.00;5020838;28;21103;-84
2023/10/15 02:49:49;;;;;;;3.83;1.83;;;;;;;11.31;100.00;100539.75;5061349;28;20186;-83
2023/10/15 02:52:19;;;;;;;3.40;1.70;;;;;;;11.28;100.00;100548.41;5044542;28;20219;-86
2023/10/15 02:54:45;;;;;;;2.27;1.43;;;;;;;11.29;100.00;100534.56;5021790;28;20188;-83
2023/10/15 02:57:18;;;;;;;3.20;1.67;;;;;;;11.29;100.00;100544.94;5022412;28;20898;-84
2023/10/15 02:59:50;;;;;;;5.27;1.97;;;;;;;11.29;100.00;100544.09;5015749;28;20219;-85
2023/10/15 03:02:20;;;;;;;3.30;1.60;;;;;;;11.28;100.00;100548.41;5014869;28;20220;-84
2023/10/15 03:04:51;;;;;;;2.27;1.47;;;;;;;11.29;100.00;100551.88;5021814;28;20651;-84
2023/10/15 03:07:19;;;;;;;3.00;1.67;;;;;;;11.32;100.00;100550.97;5018935;28;20195;-86
2023/10/15 03:09:49;;;;;;;2.67;1.57;;;;;;;11.33;100.00;100547.50;5030737;28;20191;-86
2023/10/15 03:12:18;;;;;;;4.83;1.77;;;;;;;11.34;100.00;100541.47;5028534;28;20390;-85
2023/10/15 03:14:45;;;;;;;4.13;1.50;;;;;;;11.33;100.00;100548.38;5026977;28;20187;-84
2023/10/15 03:17:31;;;;;;;2.70;1.60;;;;;;;11.34;100.00;100547.50;5028871;28;20191;-86
2023/10/15 03:19:56;;;;;;;4.53;1.90;;;;;;;11.36;100.00;100543.16;5027093;28;20222;-84
2023/10/15 03:22:24;;;;;;;3.37;1.80;;;;;;;11.37;100.00;100541.44;5044536;28;20196;-80
2023/10/15 03:24:56;;;;;;;2.43;1.33;;;;;;;11.37;100.00;100541.44;5034248;28;20176;-86
2023/10/15 03:27:27;;;;;;;2.40;1.60;;;;;;;11.36;100.00;100545.75;5021534;28;20245;-86
2023/10/15 03:29:56;;;;;;;2.70;1.60;;;;;;;11.35;100.00;100543.19;5027088;28;20257;-82
2023/10/15 03:32:31;;;;;;;3.60;1.60;;;;;;;11.34;100.00;100555.28;5030225;28;20202;-84
2023/10/15 03:35:06;;;;;;;3.07;1.60;;;;;;;11.35;100.00;100556.97;5014411;28;20179;-84
2023/10/15 03:37:32;;;;;;;3.40;1.80;;;;;;;11.35;100.00;100561.31;5023982;28;20188;-83
2023/10/15 03:39:57;;;;;;;3.63;1.50;;;;;;;11.33;100.00;100558.75;5020783;28;20211;-83
2023/10/15 03:42:26;;;;;;;1.90;1.27;;;;;;;11.33;100.00;100560.47;5017496;28;20603;-84
2023/10/15 03:44:59;;;;;;;2.03;1.27;;;;;;;11.36;100.00;100563.88;5024789;28;20180;-85
2023/10/15 03:47:25;;;;;;;2.73;1.43;;;;;;;11.39;100.00;100571.63;5010575;28;20196;-85
2023/10/15 03:49:51;;;;;;;3.60;1.40;;;;;;;11.43;100.00;100565.56;5019760;28;20176;-86
2023/10/15 03:52:22;;;;;;;2.23;1.47;;;;;;;11.46;100.00;100569.84;5018301;28;20207;-87
2023/10/15 03:54:51;;;;;;;1.77;1.37;;;;;;;11.50;100.00;100573.28;5018885;28;20179;-84
2023/10/15 03:57:17;;;;;;;2.30;1.40;;;;;;;11.52;100.00;100568.94;5018395;28;20187;-87
2023/10/15 03:59:44;;;;;;;4.47;1.87;;;;;;;11.54;100.00;100570.66;5029247;28;20211;-85
2023/10/15 04:02:11;;;;;;;4.03;1.90;;;;;;;11.54;100.00;100570.66;5024184;28;20297;-86
2023/10/15 04:04:37;;;;;;;3.73;1.90;;;;;;;11.55;100.00;100577.56;5024594;28;20206;-82
2023/10/15 04:07:10;;;;;;;3.60;1.53;;;;;;;11.53;100.00;100565.47;5025479;28;20778;-84
2023/10/15 04:09:35;;;;;;;3.10;1.67;;;;;;;11.54;100.00;100572.38;5016259;28;20245;-88
2023/10/15 04:12:06;;;;;;;4.77;1.60;;;;;;;11.53;100.00;100561.16;5036427;28;20208;-84
2023/10/15 04:14:32;;;;;;;2.20;1.30;;;;;;;11.49;100.00;100567.25;5021326;28;20216;-84
2023/10/15 04:16:58;;;;;;;3.30;1.33;;;;;;;11.48;100.00;100568.13;5023926;28;20199;-82
2023/10/15 04:19:29;;;;;;;2.63;1.73;;;;;;;11.46;100.00;100567.25;5018742;28;20227;-83
2023/10/15 04:22:13;;;;;;;3.53;1.77;;;;;;;11.41;100.00;100563.88;5021757;28;20294;-84
2023/10/15 04:24:40;;;;;;;3.17;1.50;;;;;;;11.39;100.00;100566.47;5016286;28;20188;-85
2023/10/15 04:27:06;;;;;;;3.00;1.67;;;;;;;11.33;100.00;100565.66;5013834;28;20197;-86
2023/10/15 04:29:34;;;;;;;4.53;1.70;;;;;;;11.30;100.00;100571.72;5026855;28;20185;-80
2023/10/15 04:32:09;;;;;;;2.07;1.27;;;;;;;11.28;100.00;100573.47;5025566;28;20235;-84
2023/10/15 04:34:36;;;;;;;2.57;1.17;;;;;;;11.31;100.00;100577.75;5012552;28;20636;-82
2023/10/15 04:37:16;;;;;;;2.47;1.40;;;;;;;11.32;100.00;100569.09;5024648;28;20250;-82
2023/10/15 04:39:52;;;;;;;2.60;1.27;;;;;;;11.36;100.00;100573.41;5025316;28;20221;-84
2023/10/15 04:42:21;;;;;;;2.97;1.23;;;;;;;11.36;100.00;100570.81;5019807;28;20678;-85
2023/10/15 04:44:50;;;;;;;2.30;1.43;;;;;;;11.37;100.00;100572.53;5020326;28;20183;-82
2023/10/15 04:47:25;;;;;;;3.33;1.50;;;;;;;11.32;100.00;100572.56;5016666;28;20206;-84
2023/10/15 04:49:55;;;;;;;3.40;1.60;;;;;;;11.27;100.00;100569.16;5012585;28;20595;-85
2023/10/15 04:52:22;;;;;;;2.30;1.03;;;;;;;11.23;100.00;100568.31;5022528;28;20204;-83
2023/10/15 04:54:47;;;;;;;2.50;1.50;;;;;;;11.22;100.00;100573.50;5019213;28;20180;-84
2023/10/15 04:57:12;;;;;;;2.13;1.20;;;;;;;11.22;100.00;100579.53;5020180;28;20670;-87
2023/10/15 04:59:38;;;;;;;4.03;1.40;;;;;;;11.25;100.00;100579.53;5014380;28;20243;-85
2023/10/15 05:02:03;;;;;;;5.33;2.07;;;;;;;11.27;100.00;100579.50;5008698;28;20207;-82
2023/10/15 05:04:28;;;;;;;3.47;2.40;;;;;;;11.26;100.00;100575.19;5019046;28;20202;-83
2023/10/15 05:06:54;;;;;;;4.60;3.40;;;;;;;11.24;100.00;100584.69;5018174;28;20223;-84
2023/10/15 05:09:22;;;;;;;3.90;2.80;;;;;;;11.19;100.00;100570.94;5022444;28;20179;-83
2023/10/15 05:11:52;;;;;;;5.67;2.67;;;;;;;11.15;100.00;100579.59;5021214;28;20744;-84
2023/10/15 05:14:18;;;;;;;4.77;2.17;;;;;;;11.09;100.00;100573.56;5020728;28;20229;-82
2023/10/15 05:16:47;;;;;;;4.03;1.97;;;;;;;11.04;100.00;100570.16;5024908;28;20216;-83
2023/10/15 05:19:19;;;;;;;3.30;1.80;;;;;;;10.98;100.00;100578.81;5022013;28;20554;-83
2023/10/15 05:21:46;;;;;;;3.97;2.00;;;;;;;10.94;100.00;100576.25;5017731;28;20225;-84
2023/10/15 05:24:18;;;;;;;4.87;2.00;;;;;;;10.91;100.00;100578.84;5026488;28;20188;-83
2023/10/15 05:26:46;;;;;;;4.57;2.13;;;;;;;10.86;100.00;100578.03;5029343;28;20183;-79
2023/10/15 05:29:13;;;;;;;3.53;2.40;;;;;;;10.82;100.00;100574.59;5051849;28;21204;-79
2023/10/15 05:31:40;;;;;;;2.87;1.67;;;;;;;10.79;100.00;100588.41;5038012;28;20216;-83
2023/10/15 05:34:07;;;;;;;3.03;1.53;;;;;;;10.76;100.00;100585.00;5015535;28;20286;-86
2023/10/15 05:36:33;;;;;;;4.60;1.50;;;;;;;10.74;100.00;100584.13;5011162;28;20200;-84
2023/10/15 05:38:59;;;;;;;4.53;2.10;;;;;;;10.75;100.00;100583.28;5022001;28;20253;-83
2023/10/15 05:41:24;;;;;;;5.33;1.80;;;;;;;10.73;100.00;100587.59;5014636;28;20197;-84
2023/10/15 05:43:50;;;;;;;3.83;1.90;;;;;;;10.68;100.00;100596.22;5021588;28;20214;-85
2023/10/15 05:46:15;;;;;;;3.50;1.83;;;;;;;10.65;100.00;100598.84;5021411;28;20203;-85
2023/10/15 05:48:40;;;;;;;2.43;1.30;;;;;;;10.65;100.00;100598.84;5015927;28;20180;-82
2023/10/15 05:51:09;;;;;;;2.27;1.70;;;;;;;10.65;100.00;100606.63;5047488;28;20671;-83
2023/10/15 05:53:34;;;;;;;2.70;1.60;;;;;;;10.68;100.00;100609.16;5024426;28;20206;-83
2023/10/15 05:56:00;;;;;;;5.30;2.30;;;;;;;10.67;100.00;100601.44;5026932;28;20651;-85
2023/10/15 05:58:25;;;;;;;3.37;1.80;;;;;;;10.63;100.00;100613.53;5029247;28;20197;-86
2023/10/15 06:00:50;;;;;;;3.50;1.40;;;;;;;10.58;100.00;100622.19;5018558;28;20344;-84
2023/10/15 06:03:16;;;;;;;3.30;1.50;;;;;;;10.53;100.00;100629.94;5022224;28;20208;-82
2023/10/15 06:05:41;;;;;;;1.93;1.17;;;;;;;10.51;100.00;100627.38;5020741;28;20207;-83
2023/10/15 06:08:08;;;;;;;4.47;1.63;;;;;;;10.50;100.00;100628.22;5019039;28;20205;-83
2023/10/15 06:10:33;;;;;;;3.03;1.40;;;;;;;10.50;100.00;100627.38;5021759;28;20233;-83
2023/10/15 06:12:59;;;;;;;2.63;1.63;;;;;;;10.50;100.00;100636.00;5013170;28;20250;-83
2023/10/15 06:15:26;;;;;;;3.10;1.70;;;;;;;10.48;100.00;100627.38;5016401;28;20597;-86
2023/10/15 06:17:51;;;;;;;4.27;1.50;;;;;;;10.50;100.00;100635.16;5021908;28;20661;-85
2023/10/15 06:20:17;;;;;;;2.60;1.60;;;;;;;10.48;100.00;100640.31;5024926;28;20343;-83
2023/10/15 06:22:47;;;;;;;5.53;2.10;;;;;;;10.47;100.00;100640.31;5019505;28;20301;-86
2023/10/15 06:25:16;;;;;;;4.83;1.87;;;;;;;10.46;100.00;100641.19;5019984;28;20312;-86
2023/10/15 06:27:41;;;;;;;5.20;2.50;;;;;;;10.42;100.00;100645.53;5015893;28;20380;-84
2023/10/15 06:30:14;;;;;;;5.83;2.10;;;;;;;10.36;100.00;100641.16;5019057;28;20647;-82
2023/10/15 06:32:41;;;;;;;3.70;1.93;;;;;;;10.30;100.00;100641.19;5020994;28;20217;-81
2023/10/15 06:35:07;;;;;;;5.97;2.10;;;;;;;10.27;100.00;100645.53;5024466;28;20671;-81
2023/10/15 06:37:32;;;;;;;2.37;1.97;;;;;;;10.22;100.00;100645.50;5020452;28;20226;-80
2023/10/15 06:39:58;;;;;;;3.87;1.93;;;;;;;10.20;100.00;100655.00;5019799;28;20634;-81
2023/10/15 06:42:23;;;;;;;3.87;1.67;;;;;;;10.21;100.00;100659.28;5020721;28;20886;-82
2023/10/15 06:44:48;;;;;;;3.60;1.70;;;;;;;10.25;100.00;100668.78;5025395;28;20190;-83
2023/10/15 06:47:14;;;;;;;3.50;2.00;;;;;;;10.32;100.00;100677.41;5027018;28;20191;-80
2023/10/15 06:49:39;;;;;;;2.20;1.37;;;;;;;10.35;100.00;100669.63;5024888;28;20179;-87
2023/10/15 06:52:05;;;;;;;3.20;1.70;;;;;;;10.38;100.00;100667.09;5019531;28;20227;-82
2023/10/15 06:54:31;;;;;;;2.57;1.50;;;;;;;10.42;100.00;100675.69;5020774;28;20175;-85
2023/10/15 06:56:57;;;;;;;2.20;1.63;;;;;;;10.49;100.00;100672.25;5024859;28;20253;-80
2023/10/15 06:59:22;;;;;;;2.83;1.50;;;;;;;10.54;100.00;100675.66;5023730;28;20206;-84
2023/10/15 07:01:47;;;;;;;3.50;1.70;;;;;;;10.58;100.00;100679.97;5021149;28;20204;-84
2023/10/15 07:04:13;;;;;;;3.90;1.67;;;;;;;10.60;100.00;100678.25;5017357;28;20265;-82
2023/10/15 07:06:39;;;;;;;3.03;1.70;;;;;;;10.64;100.00;100687.72;5025207;28;20233;-87
2023/10/15 07:09:06;;;;;;;3.97;2.10;;;;;;;10.70;100.00;100693.72;5026940;28;20252;-86
2023/10/15 07:11:32;;;;;;;3.37;1.40;;;;;;;10.73;100.00;100694.59;5045094;28;21024;-85
2023/10/15 07:13:58;;;;;;;3.97;1.57;;;;;;;10.76;100.00;100694.56;5028006;28;20237;-85
2023/10/15 07:16:24;;;;;;;3.57;1.50;;;;;;;10.81;100.00;100697.16;5027817;28;20194;-82
2023/10/15 07:18:49;;;;;;;3.63;1.67;;;;;;;10.85;100.00;100703.19;5014243;28;20329;-79
2023/10/15 07:21:15;;;;;;;3.70;1.93;;;;;;;10.87;100.00;100704.91;5012209;28;20207;-85
2023/10/15 07:23:41;;;;;;;5.20;2.03;;;;;;;10.89;100.00;100703.16;5012712;28;20279;-84
2023/10/15 07:26:06;;;;;;;4.10;1.57;;;;;;;10.91;100.00;100713.50;5025105;28;20201;-87
2023/10/15 07:28:32;;;;;;;2.77;1.30;;;;;;;10.93;100.00;100717.84;5024778;28;20670;-84
2023/10/15 07:30:57;;;;;;;3.93;1.77;;;;;;;10.99;100.00;100714.34;5021066;28;20195;-82
2023/10/15 07:33:23;;;;;;;4.10;1.70;;;;;;;11.09;100.00;100716.03;5037760;28;20238;-79
2023/10/15 07:35:49;;;;;;;3.47;1.63;;;;;;;11.18;100.00;100714.28;5053917;28;20168;-79
2023/10/15 07:38:14;;;;;;;2.80;1.50;;;;;;;11.22;100.00;100715.97;5032850;28;20284;-84
2023/10/15 07:40:40;;;;;;;3.23;2.00;;;;;;;11.28;100.00;100711.63;5031021;28;20209;-83
2023/10/15 07:43:08;;;;;;;3.13;1.60;;;;;;;11.31;100.00;100718.53;5030244;28;20884;-82
2023/10/15 07:45:35;;;;;;;3.43;1.87;;;;;;;11.36;100.00;100718.50;5018679;28;20195;-84
2023/10/15 07:48:02;;;;;;;2.80;1.90;;;;;;;11.38;100.00;100721.97;5021556;28;20274;-87
2023/10/15 07:50:34;;;;;;;3.00;1.40;;;;;;;11.41;100.00;100721.94;5022745;28;20185;-85
2023/10/15 07:53:00;;;;;;;4.07;2.17;;;;;;;11.47;100.00;100724.50;5017508;28;20846;-80
2023/10/15 07:55:26;;;;;;;2.97;1.83;;;;;;;11.47;100.00;100721.91;5022214;28;20184;-85
2023/10/15 07:57:52;;;;;;;4.97;2.33;;;;;;;11.45;100.00;100723.63;5023320;28;20611;-82
2023/10/15 08:00:23;;;;;;;4.00;2.00;;;;;;;11.39;100.00;100726.28;5016833;28;20302;-82
2023/10/15 08:02:52;;;;;;;3.20;2.00;;;;;;;11.34;100.00;100733.19;5020620;28;20215;-81
2023/10/15 08:05:20;;;;;;;2.87;2.03;;;;;;;11.26;100.00;100723.75;5027625;28;20686;-82
2023/10/15 08:07:46;;;;;;;3.83;2.20;;;;;;;11.21;100.00;100729.78;5021336;28;20337;-84
2023/10/15 08:10:11;;;;;;;3.57;2.10;;;;;;;11.13;100.00;100722.94;5023951;28;20278;-82
2023/10/15 08:12:37;;;;;;;4.40;2.70;;;;;;;11.10;100.00;100724.69;5020956;28;20286;-82
2023/10/15 08:15:03;;;;;;;4.77;2.80;;;;;;;11.24;100.00;100727.19;5020339;28;20196;-83
2023/10/15 08:17:29;;;;;;;4.17;2.30;;;;;;;11.41;100.00;100734.91;5013741;28;20185;-84
2023/10/15 08:19:55;;;;;;;4.93;2.70;;;;;;;11.55;100.00;100735.69;5022588;28;20214;-85
2023/10/15 08:22:20;;;;;;;2.93;2.13;;;;;;;11.56;100.00;100731.34;5015965;28;20231;-83
2023/10/15 08:24:45;;;;;;;3.70;2.77;;;;;;;11.57;100.00;100733.06;5019088;28;20219;-85
2023/10/15 08:27:13;;;;;;;5.07;3.20;;;;;;;11.67;100.00;100731.28;5022036;28;20195;-85
2023/10/15 08:29:40;;;;;;;4.77;2.77;;;;;;;11.81;100.00;100734.66;5022113;28;20485;-85
2023/10/15 08:32:06;;;;;;;4.30;2.70;;;;;;;11.96;100.00;100738.84;5021295;28;20210;-84
2023/10/15 08:34:32;;;;;;;4.73;2.53;;;;;;;12.12;100.00;100736.16;5016541;28;20765;-83
2023/10/15 08:36:57;;;;;;;4.57;3.20;;;;;;;12.25;100.00;100739.53;5024627;28;20202;-83
2023/10/15 08:39:23;;;;;;;5.53;3.20;;;;;;;12.37;100.00;100741.16;5020933;28;20226;-84
2023/10/15 08:41:52;;;;;;;5.47;3.10;;;;;;;12.45;100.00;100736.75;5019668;28;20250;-83
2023/10/15 08:44:18;;;;;;;4.17;3.17;;;;;;;12.57;100.00;100733.19;5010878;28;20275;-83
2023/10/15 08:46:47;;;;;;;4.43;3.30;;;;;;;12.66;100.00;100725.28;5020611;28;20193;-81
2023/10/15 08:49:15;;;;;;;4.53;2.87;;;;;;;12.75;100.00;100729.53;5019924;28;20180;-84
2023/10/15 08:51:42;;;;;;;5.10;3.20;;;;;;;12.82;100.00;100733.78;5009932;28;20211;-81
2023/10/15 08:54:11;;;;;;;4.73;2.50;;;;;;;12.96;100.00;100731.03;5015488;28;20240;-82
2023/10/15 08:56:37;;;;;;;4.83;2.40;;;;;;;13.06;97.90;100739.56;5031688;28;20217;-82
2023/10/15 08:59:04;;;;;;;4.23;2.30;;;;;;;13.11;97.33;100740.38;5009945;28;20245;-83
2023/10/15 09:01:32;;;;;;;3.90;2.07;;;;;;;13.08;96.49;100735.22;5017792;28;20207;-81
2023/10/15 09:03:57;;;;;;;4.70;2.40;;;;;;;13.09;95.68;100737.78;5017030;28;20219;-84
2023/10/15 09:06:24;;;;;;;3.00;1.80;;;;;;;13.21;95.89;100735.94;5016451;28;20615;-83
2023/10/15 09:08:51;;;;;;;3.67;1.90;;;;;;;13.43;95.03;100738.28;5010888;28;20269;-84
2023/10/15 09:11:17;;;;;;;3.03;2.20;;;;;;;13.44;89.43;100745.19;5020421;28;20192;-87
2023/10/15 09:13:49;;;;;;;2.67;1.67;;;;;;;13.52;90.38;100744.22;5022330;28;20248;-83
2023/10/15 09:16:15;;;;;;;2.93;1.80;;;;;;;13.57;89.66;100733.72;5012764;28;20557;-82
2023/10/15 09:18:43;;;;;;;2.83;1.63;;;;;;;13.66;88.87;100737.94;5023845;28;20193;-86
2023/10/15 09:21:09;;;;;;;2.37;1.57;;;;;;;13.68;83.59;100739.66;5024295;28;20199;-88
2023/10/15 09:23:36;;;;;;;3.70;1.87;;;;;;;13.82;84.73;100739.44;5020802;28;20992;-83
2023/10/15 09:26:06;;;;;;;3.47;1.47;;;;;;;14.07;84.19;100746.00;5031677;28;21103;-80
2023/10/15 09:28:33;;;;;;;2.30;1.30;;;;;;;14.12;84.43;100739.84;5018291;28;20199;-81
2023/10/15 09:31:06;;;;;;;3.70;1.80;;;;;;;14.09;82.95;100742.50;5015622;28;20265;-86
2023/10/15 09:33:33;;;;;;;4.33;2.00;;;;;;;14.18;83.72;100746.69;5012807;28;20280;-79
2023/10/15 09:35:59;;;;;;;3.70;1.40;;;;;;;14.13;83.17;100744.16;5016218;28;20196;-81
2023/10/15 09:38:25;;;;;;;4.20;1.70;;;;;;;14.09;81.91;100744.25;5021344;28;20232;-84
2023/10/15 09:40:55;;;;;;;2.70;1.23;;;;;;;13.95;78.52;100750.53;5040617;28;20230;-79
2023/10/15 09:43:23;;;;;;;2.73;1.30;;;;;;;13.88;80.00;100754.09;5044478;28;20216;-81
2023/10/15 09:45:50;;;;;;;2.90;1.17;;;;;;;13.76;77.83;100738.69;5022466;28;20234;-88
2023/10/15 09:48:16;;;;;;;3.27;1.47;;;;;;;13.71;78.99;100742.19;5018538;28;20243;-85
2023/10/15 09:50:42;;;;;;;2.70;1.30;;;;;;;13.67;79.88;100735.34;5017772;28;20173;-81
2023/10/15 09:53:12;;;;;;;3.27;1.60;;;;;;;13.63;80.61;100746.66;5018839;28;20207;-87
2023/10/15 09:55:40;;;;;;;4.43;1.60;;;;;;;13.54;80.92;100742.44;5010955;28;20223;-86
2023/10/15 09:58:06;;;;;;;4.10;1.73;;;;;;;13.24;77.89;100747.16;5020846;28;20740;-85
2023/10/15 10:00:49;;;;;;;2.63;1.03;;;;;;;13.13;79.57;100745.56;5026417;28;20252;-80
2023/10/15 10:03:33;;;;;;;3.27;1.43;;;;;;;12.98;78.44;100746.59;5019904;28;21200;-85
2023/10/15 10:06:14;;;;;;;2.37;1.30;;;;;;;12.88;79.96;100751.03;5015958;28;20195;-81
2023/10/15 10:08:49;;;;;;;2.23;1.00;;;;;;;12.79;80.56;100752.84;5023161;28;20181;-83
2023/10/15 10:11:45;;;;;;;3.63;1.60;;;;;;;12.74;81.30;100745.97;5023749;28;20857;-83
2023/10/15 10:14:19;;;;;;;4.30;1.67;;;;;;;12.90;81.97;100754.50;5020480;28;20214;-83
2023/10/15 10:16:45;;;;;;;2.57;1.00;;;;;;;13.20;81.61;100748.06;5019443;28;20187;-83
2023/10/15 10:19:11;;;;;;;2.23;1.10;;;;;;;13.51;80.48;100746.84;5018882;28;20603;-86
2023/10/15 10:21:37;;;;;;;2.30;1.33;;;;;;;13.78;76.35;100740.38;5019960;28;20229;-81
2023/10/15 10:24:08;;;;;;;2.40;1.30;;;;;;;14.13;77.41;100731.16;5021014;28;20275;-88
2023/10/15 10:26:38;;;;;;;2.40;1.40;;;;;;;14.42;74.38;100731.53;5013496;28;20189;-88
2023/10/15 10:29:03;;;;;;;1.80;1.57;;;;;;;14.78;75.13;100734.38;5010000;28;20178;-85
2023/10/15 10:31:30;;;;;;;1.70;1.23;;;;;;;15.08;73.99;100725.09;5019273;28;20214;-82
2023/10/15 10:33:57;;;;;;;3.00;1.20;;;;;;;15.36;73.95;100731.44;5019122;28;20182;-85
2023/10/15 10:36:27;;;;;;;2.23;1.10;;;;;;;15.50;71.69;100728.56;5012701;28;20244;-84
2023/10/15 10:39:10;;;;;;;2.77;1.40;;;;;;;15.67;69.11;100725.53;5013661;28;20293;-84
2023/10/15 10:42:05;;;;;;;2.77;1.40;;;;;;;15.57;70.59;100737.09;5016429;28;20212;-85
2023/10/15 10:44:30;;;;;;;2.10;1.20;;;;;;;15.44;71.65;100739.09;5021430;28;20196;-85
2023/10/15 10:46:56;;;;;;;2.80;1.20;;;;;;;15.27;71.80;100742.09;5023565;28;20190;-81
2023/10/15 10:49:39;;;;;;;2.70;1.50;;;;;;;14.96;72.98;100737.50;5023346;28;20327;-86
2023/10/15 10:52:17;;;;;;;2.23;1.00;;;;;;;14.67;74.03;100731.09;5035439;28;20299;-84
2023/10/15 10:54:43;;;;;;;2.67;1.53;;;;;;;14.57;75.15;100735.59;5015620;28;20195;-82
2023/10/15 10:57:09;;;;;;;2.83;1.60;;;;;;;14.61;74.39;100739.88;5018419;28;20291;-86
2023/10/15 10:59:37;;;;;;;1.83;1.40;;;;;;;14.55;75.07;100733.03;5017857;28;20230;-83
2023/10/15 11:02:06;;;;;;;1.97;1.27;;;;;;;14.59;74.75;100733.84;5028124;28;20704;-84
2023/10/15 11:04:32;;;;;;;2.13;1.00;;;;;;;14.65;74.65;100720.72;5022431;28;20865;-84
2023/10/15 11:06:58;;;;;;;3.73;1.50;;;;;;;14.62;71.79;100733.78;5021252;28;20191;-86
2023/10/15 11:09:24;;;;;;;3.40;1.30;;;;;;;14.57;69.90;100728.66;5021060;28;20814;-85
2023/10/15 11:11:51;;;;;;;3.07;1.50;;;;;;;14.54;70.97;100726.09;5023361;28;20204;-86
2023/10/15 11:14:20;;;;;;;2.23;1.20;;;;;;;14.80;71.93;100724.78;5018555;28;20192;-79
2023/10/15 11:16:45;;;;;;;2.47;1.07;;;;;;;14.79;67.48;100717.84;5025876;28;20564;-83
2023/10/15 11:19:18;;;;;;;1.90;0.90;;;;;;;14.80;65.85;100719.56;5032836;28;20207;-82
2023/10/15 11:21:45;;;;;;;2.43;0.93;;;;;;;15.22;64.96;100718.72;5017169;28;20298;-83
2023/10/15 11:24:11;;;;;;;1.83;0.80;;;;;;;15.35;66.33;100711.50;5024348;28;20605;-86
2023/10/15 11:26:38;;;;;;;2.80;1.00;;;;;;;15.51;67.09;100723.28;5018265;28;20821;-85
2023/10/15 11:29:04;;;;;;;2.20;1.13;;;;;;;15.46;67.39;100719.94;5020717;28;20226;-83
2023/10/15 11:31:30;;;;;;;1.67;0.80;;;;;;;15.41;66.28;100723.56;5029694;28;20219;-82
2023/10/15 11:33:55;;;;;;;1.00;0.90;;;;;;;15.21;68.08;100728.28;5019814;28;20183;-84